createdAt,value
2023-05-15T00:02:02.578Z,99964.56
2023-05-15T00:07:05.360Z,99966.66
2023-05-15T00:12:10.276Z,99959.75
2023-05-15T00:17:13.273Z,99957.47
2023-05-15T00:22:16.061Z,99957.03
2023-05-15T00:27:20.419Z,99942.19
2023-05-15T00:32:23.305Z,99942.56
2023-05-15T00:37:27.872Z,99939.31
2023-05-15T00:42:32.385Z,99934.34
2023-05-15T00:47:35.271Z,99929.69
2023-05-15T00:52:38.186Z,99927.09
2023-05-15T00:57:42.685Z,99927.38
2023-05-15T01:02:46.261Z,99919.59
2023-05-15T01:07:53.543Z,99922.56
2023-05-15T01:12:57.711Z,99917.28
2023-05-15T01:18:00.651Z,99915.72
2023-05-15T01:23:11.964Z,99895.59
2023-05-15T01:28:18.744Z,99894.91
2023-05-15T01:33:24.273Z,99895.91
2023-05-15T01:38:35.852Z,99890.81
2023-05-15T01:43:40.955Z,99891.06
2023-05-15T01:48:44.531Z,99892.19
2023-05-15T01:53:47.738Z,99892.47
2023-05-15T01:58:51.882Z,99879.19
2023-05-15T02:03:55.458Z,99878.59
2023-05-15T02:08:58.527Z,99870.81
2023-05-15T02:14:02.712Z,99867.41
2023-05-15T02:19:05.547Z,99861.44
2023-05-15T02:24:08.495Z,99861.56
2023-05-15T02:29:17.051Z,99854.78
2023-05-15T02:34:25.782Z,99855.91
2023-05-15T02:39:28.572Z,99852.34
2023-05-15T02:44:32.749Z,99844.56
2023-05-15T02:49:35.744Z,99830.44
2023-05-15T02:54:38.531Z,99833.25
2023-05-15T02:59:42.859Z,99827.88
2023-05-15T03:04:46.465Z,99826.31
2023-05-15T03:09:50.812Z,99823.75
2023-05-15T03:14:54.991Z,99836.34
2023-05-15T03:19:57.807Z,99824.19
2023-05-15T03:25:01.883Z,99813.56
2023-05-15T03:30:07.750Z,99819.94
2023-05-15T03:35:11.551Z,99822.88
2023-05-15T03:40:15.288Z,99820.47
2023-05-15T03:45:19.480Z,99814.25
2023-05-15T03:50:23.807Z,99824.16
2023-05-15T03:55:26.870Z,99821.59
2023-05-15T04:00:31.245Z,99817.22
2023-05-15T04:05:34.047Z,99815.50
2023-05-15T04:10:36.909Z,99811.97
2023-05-15T04:15:41.439Z,99808.56
2023-05-15T04:20:44.244Z,99807.72
2023-05-15T04:25:47.300Z,99804.19
2023-05-15T04:30:51.609Z,99806.03
2023-05-15T04:35:54.553Z,99794.28
2023-05-15T04:40:57.327Z,99796.13
2023-05-15T04:46:01.476Z,99800.50
2023-05-15T04:51:04.307Z,99795.13
2023-05-15T04:56:07.356Z,99793.16
2023-05-15T05:01:11.585Z,99788.63
2023-05-15T05:06:14.368Z,99790.38
2023-05-15T05:11:17.142Z,99792.16
2023-05-15T05:16:21.341Z,99777.78
2023-05-15T05:21:24.217Z,99777.66
2023-05-15T05:26:27.560Z,99771.13
2023-05-15T05:31:31.886Z,99779.06
2023-05-15T05:36:36.907Z,99772.56
2023-05-15T05:41:39.829Z,99773.44
2023-05-15T05:46:45.247Z,99768.75
2023-05-15T05:51:48.072Z,99761.41
2023-05-15T05:56:50.882Z,99756.75
2023-05-15T06:01:55.500Z,99755.75
2023-05-15T06:06:58.434Z,99752.91
2023-05-15T06:12:04.579Z,99742.91
2023-05-15T06:17:09.033Z,99747.16
2023-05-15T06:22:12.028Z,99741.50
2023-05-15T06:27:14.937Z,99733.28
2023-05-15T06:32:19.112Z,99745.63
2023-05-15T06:37:22.296Z,99740.25
2023-05-15T06:42:25.104Z,99741.09
2023-05-15T06:47:29.323Z,99736.81
2023-05-15T06:52:32.278Z,99742.34
2023-05-15T06:57:35.151Z,99738.38
2023-05-15T07:02:39.338Z,99737.19
2023-05-15T07:07:42.737Z,99729.78
2023-05-15T07:12:45.981Z,99723.59
2023-05-15T07:17:50.315Z,99741.09
2023-05-15T07:22:56.684Z,99725.09
2023-05-15T07:27:59.776Z,99731.28
2023-05-15T07:33:04.495Z,99732.69
2023-05-15T07:38:08.045Z,99730.41
2023-05-15T07:43:10.861Z,99725.75
2023-05-15T07:48:18.367Z,99720.22
2023-05-15T07:53:21.755Z,99726.38
2023-05-15T07:58:24.573Z,99716.81
2023-05-15T08:03:29.119Z,99716.47
2023-05-15T08:08:32.020Z,99704.53
2023-05-15T08:13:34.794Z,99709.00
2023-05-15T08:18:38.948Z,99704.16
2023-05-15T08:23:41.950Z,99713.28
2023-05-15T08:28:44.936Z,99702.44
2023-05-15T08:33:49.079Z,99694.50
2023-05-15T08:38:51.875Z,99692.91
2023-05-15T08:43:54.632Z,99689.28
2023-05-15T08:48:58.807Z,99682.59
2023-05-15T08:54:04.548Z,99676.63
2023-05-15T08:59:07.426Z,99683.66
2023-05-15T09:04:11.710Z,99673.50
2023-05-15T09:09:14.536Z,99667.47
2023-05-15T09:14:17.339Z,99662.47
2023-05-15T09:19:22.507Z,99657.50
2023-05-15T09:24:28.283Z,99653.00
2023-05-15T09:29:31.179Z,99649.41
2023-05-15T09:34:35.932Z,99654.06
2023-05-15T09:39:41.779Z,99647.91
2023-05-15T09:44:45.165Z,99641.66
2023-05-15T09:49:49.344Z,99648.97
2023-05-15T09:54:52.187Z,99638.75
2023-05-15T09:59:55.093Z,99640.44
2023-05-15T10:04:59.744Z,99633.63
2023-05-15T10:10:03.525Z,99633.19
2023-05-15T10:15:07.455Z,99642.56
2023-05-15T10:20:12.590Z,99635.13
2023-05-15T10:25:17.797Z,99626.06
2023-05-15T10:30:20.940Z,99620.59
2023-05-15T10:35:25.419Z,99620.97
2023-05-15T10:40:28.314Z,99610.28
2023-05-15T10:45:31.325Z,99603.81
2023-05-15T10:50:37.524Z,99601.69
2023-05-15T10:55:40.529Z,99604.94
2023-05-15T11:00:44.065Z,99593.97
2023-05-15T11:06:10.780Z,99592.88
2023-05-15T11:11:55.798Z,99582.97
2023-05-15T11:16:59.873Z,99580.28
2023-05-15T11:22:09.734Z,99575.50
2023-05-15T11:27:13.597Z,99570.44
2023-05-15T11:32:56.355Z,99568.25
2023-05-15T11:38:01.155Z,99557.53
2023-05-15T11:43:05.570Z,99543.38
2023-05-15T11:48:09.119Z,99547.63
2023-05-15T11:53:13.743Z,99540.16
2023-05-15T11:58:17.400Z,99539.16
2023-05-15T12:03:24.966Z,99542.00
2023-05-15T12:08:32.620Z,99548.50
2023-05-15T12:13:35.498Z,99550.47
2023-05-15T12:18:38.567Z,99545.66
2023-05-15T12:23:48.721Z,99557.09
2023-05-15T12:28:59.338Z,99553.56
2023-05-15T12:34:02.505Z,99562.47
2023-05-15T12:39:08.182Z,99558.94
2023-05-15T12:44:17.321Z,99554.13
2023-05-15T12:49:23.668Z,99550.47
2023-05-15T12:54:27.967Z,99558.66
2023-05-15T12:59:31.090Z,99545.38
2023-05-15T13:09:38.399Z,99534.00
2023-05-15T13:14:42.882Z,99520.81
2023-05-15T13:19:45.676Z,99511.63
2023-05-15T13:24:49.937Z,99505.81
2023-05-15T13:29:52.809Z,99503.53
2023-05-15T13:34:57.872Z,99504.97
2023-05-15T13:40:02.197Z,99505.66
2023-05-15T13:45:06.255Z,99500.59
2023-05-15T13:50:09.948Z,99493.53
2023-05-15T13:55:14.234Z,99508.22
2023-05-15T14:00:18.621Z,99507.00
2023-05-15T14:05:21.680Z,99513.06
2023-05-15T14:10:26.490Z,99528.34
2023-05-15T14:15:29.586Z,99525.97
2023-05-15T14:20:32.484Z,99525.81
2023-05-15T14:25:36.862Z,99517.41
2023-05-15T14:30:39.792Z,99504.81
2023-05-15T14:35:42.703Z,99502.06
2023-05-15T14:40:47.006Z,99510.66
2023-05-15T14:45:49.823Z,99509.84
2023-05-15T14:50:52.717Z,99511.34
2023-05-15T14:55:58.594Z,99507.25
2023-05-15T15:01:02.131Z,99511.59
2023-05-15T15:06:05.540Z,99509.44
2023-05-15T15:11:10.365Z,99509.97
2023-05-15T15:16:13.340Z,99504.03
2023-05-15T15:21:16.281Z,99498.47
2023-05-15T15:26:21.614Z,99501.44
2023-05-15T15:31:24.456Z,99505.63
2023-05-15T15:36:27.363Z,99508.41
2023-05-15T15:41:32.650Z,99502.88
2023-05-15T15:46:35.575Z,99499.41
2023-05-15T15:51:38.461Z,99503.81
2023-05-15T15:56:42.948Z,99527.34
2023-05-15T16:01:46.339Z,99513.88
2023-05-15T16:06:49.198Z,99517.22
2023-05-15T16:11:54.670Z,99518.47
2023-05-15T16:16:57.586Z,99515.28
2023-05-15T16:22:00.535Z,99522.03
2023-05-15T16:27:04.955Z,99517.44
2023-05-15T16:32:08.402Z,99525.72
2023-05-15T16:37:11.352Z,99524.72
2023-05-15T16:42:15.670Z,99518.97
2023-05-15T16:47:18.437Z,99525.53
2023-05-15T16:52:21.463Z,99521.16
2023-05-15T16:57:26.145Z,99533.84
2023-05-15T17:02:29.216Z,99544.75
2023-05-15T17:07:32.165Z,99542.72
2023-05-15T17:12:36.409Z,99546.44
2023-05-15T17:17:39.498Z,99548.25
2023-05-15T17:22:42.467Z,99552.69
2023-05-15T17:27:46.999Z,99552.78
2023-05-15T17:32:50.000Z,99551.03
2023-05-15T17:37:53.142Z,99557.91
2023-05-15T17:42:57.359Z,99564.75
2023-05-15T17:48:03.681Z,99568.47
2023-05-15T17:53:06.764Z,99569.88
2023-05-15T17:58:11.115Z,99578.69
2023-05-15T18:03:14.052Z,99590.19
2023-05-15T18:08:17.036Z,99591.25
2023-05-15T18:13:21.325Z,99593.38
2023-05-15T18:18:24.402Z,99593.69
2023-05-15T18:23:27.564Z,99602.09
2023-05-15T18:28:32.755Z,99606.09
2023-05-15T18:33:35.792Z,99614.31
2023-05-15T18:38:38.968Z,99618.72
2023-05-15T18:43:43.334Z,99618.72
2023-05-15T18:48:46.212Z,99620.41
2023-05-15T18:53:49.071Z,99632.03
2023-05-15T18:58:54.706Z,99645.81
2023-05-15T19:03:57.765Z,99648.81
2023-05-15T19:09:00.647Z,99656.19
2023-05-15T19:14:05.216Z,99663.25
2023-05-15T19:19:08.443Z,99667.69
2023-05-15T19:24:11.745Z,99681.69
2023-05-15T19:29:15.971Z,99687.06
2023-05-15T19:34:18.982Z,99694.84
2023-05-15T19:39:21.828Z,99700.53
2023-05-15T19:44:26.092Z,99701.22
2023-05-15T19:49:28.947Z,99715.25
2023-05-15T19:54:31.765Z,99709.47
2023-05-15T19:59:35.963Z,99712.00
2023-05-15T20:04:38.807Z,99711.84
2023-05-15T20:09:41.610Z,99724.31
2023-05-15T20:14:50.602Z,99726.03
2023-05-15T20:19:53.883Z,99734.81
2023-05-15T20:24:56.676Z,99731.97
2023-05-15T20:30:01.846Z,99732.50
2023-05-15T20:35:05.223Z,99738.72
2023-05-15T20:40:11.109Z,99750.34
2023-05-15T20:45:15.386Z,99745.97
2023-05-15T20:50:18.760Z,99747.59
2023-05-15T20:55:21.684Z,99737.94
2023-05-15T21:00:25.950Z,99742.31
2023-05-15T21:05:29.025Z,99739.63
2023-05-15T21:10:31.801Z,99725.63
2023-05-15T21:15:35.961Z,99733.72
2023-05-15T21:20:38.958Z,99736.41
2023-05-15T21:25:43.096Z,99743.63
2023-05-15T21:30:47.376Z,99743.63
2023-05-15T21:35:51.244Z,99746.34
2023-05-15T21:40:54.354Z,99756.25
2023-05-15T21:45:58.791Z,99764.34
2023-05-15T21:51:01.737Z,99772.88
2023-05-15T21:56:04.934Z,99763.53
2023-05-15T22:01:09.222Z,99775.16
2023-05-15T22:06:12.040Z,99780.88
2023-05-15T22:11:15.357Z,99777.75
2023-05-15T22:16:19.626Z,99778.59
2023-05-15T22:21:22.459Z,99786.00
2023-05-15T22:26:25.407Z,99792.66
2023-05-15T22:31:29.552Z,99803.72
2023-05-15T22:36:35.041Z,99801.50
2023-05-15T22:41:37.919Z,99796.81
2023-05-15T22:46:42.414Z,99798.41
2023-05-15T22:51:45.378Z,99805.94
2023-05-15T22:56:48.230Z,99818.63
2023-05-15T23:01:52.489Z,99811.84
2023-05-15T23:06:55.678Z,99809.47
2023-05-15T23:11:58.547Z,99822.34
2023-05-15T23:17:02.782Z,99822.78
2023-05-15T23:22:05.837Z,99822.34
2023-05-15T23:27:08.716Z,99829.88
2023-05-15T23:32:13.478Z,99830.16
2023-05-15T23:37:16.653Z,99829.59
2023-05-15T23:42:19.547Z,99836.25
2023-05-15T23:47:23.658Z,99839.22
2023-05-15T23:52:26.637Z,99835.28
2023-05-15T23:57:29.444Z,99845.34
